Time;durP1;ratioP1;P1;durP2;ratioP2;P2;SDS_P1;SDS_P2;PMS_P1;PMS_P2;Temp;Humidity;BMP_temperature;BMP_pressure;BME280_temperature;BME280_humidity;BME280_pressure;Samples;Min_cycle;Max_cycle;Signal;HPM_P1;HPM_P2
2021/03/09 00:02:23;;;;;;;18.23;10.90;;;;;;;;;;4996746;28;20074;-70
2021/03/09 00:04:49;;;;;;;18.27;10.25;;;;;;;;;;4993295;28;20097;-70
2021/03/09 00:07:15;;;;;;;16.55;9.88;;;;;;;;;;4976271;28;20050;-69
2021/03/09 00:09:41;;;;;;;15.40;9.70;;;;;;;;;;4994232;28;20109;-69
2021/03/09 00:12:09;;;;;;;14.52;9.13;;;;;;;;;;4977326;28;20057;-69
2021/03/09 00:14:35;;;;;;;15.63;9.77;;;;;;;;;;5012504;28;20103;-69
2021/03/09 00:17:01;;;;;;;17.48;10.25;;;;;;;;;;5013303;28;20437;-69
2021/03/09 00:19:27;;;;;;;17.92;10.80;;;;;;;;;;5013694;28;20053;-69
2021/03/09 00:21:53;;;;;;;16.20;10.05;;;;;;;;;;5013816;28;20077;-69
2021/03/09 00:24:19;;;;;;;16.98;10.82;;;;;;;;;;5013637;28;20559;-69
2021/03/09 00:26:45;;;;;;;19.23;10.70;;;;;;;;;;5002188;28;20058;-69
2021/03/09 00:29:11;;;;;;;16.25;10.25;;;;;;;;;;4994121;28;20054;-69
2021/03/09 00:31:37;;;;;;;16.70;10.02;;;;;;;;;;4993883;28;20046;-69
2021/03/09 00:34:04;;;;;;;15.23;9.82;;;;;;;;;;4976755;28;20166;-69
2021/03/09 00:36:30;;;;;;;17.60;9.13;;;;;;;;;;4975788;28;20047;-69
2021/03/09 00:38:56;;;;;;;18.45;9.80;;;;;;;;;;4976674;28;20093;-69
2021/03/09 00:41:22;;;;;;;18.90;10.05;;;;;;;;;;4993706;28;20101;-70
2021/03/09 00:43:48;;;;;;;16.40;8.73;;;;;;;;;;4993745;28;20050;-69
2021/03/09 00:46:14;;;;;;;16.17;9.82;;;;;;;;;;4992802;28;20085;-69
2021/03/09 00:48:41;;;;;;;18.23;10.57;;;;;;;;;;5007772;28;20049;-69
2021/03/09 00:51:07;;;;;;;15.95;9.63;;;;;;;;;;4995837;28;20141;-69
2021/03/09 00:53:33;;;;;;;16.10;9.35;;;;;;;;;;5012021;28;20100;-69
2021/03/09 00:56:00;;;;;;;19.25;9.95;;;;;;;;;;4994860;28;20472;-69
2021/03/09 00:58:26;;;;;;;19.92;10.05;;;;;;;;;;4995515;28;20115;-69
2021/03/09 01:00:53;;;;;;;17.02;9.25;;;;;;;;;;5013138;28;20050;-69
2021/03/09 01:03:19;;;;;;;16.00;9.27;;;;;;;;;;4995832;28;20080;-69
2021/03/09 01:05:46;;;;;;;18.90;10.25;;;;;;;;;;5012247;28;20108;-69
2021/03/09 01:08:12;;;;;;;18.08;8.95;;;;;;;;;;4994789;28;20053;-69
2021/03/09 01:10:38;;;;;;;18.45;9.52;;;;;;;;;;5012820;28;20054;-69
2021/03/09 01:13:04;;;;;;;20.50;9.27;;;;;;;;;;5011632;28;20049;-69
2021/03/09 01:15:30;;;;;;;16.60;9.85;;;;;;;;;;4994172;28;20116;-69
2021/03/09 01:18:10;;;;;;;17.73;9.45;;;;;;;;;;4997224;28;20060;-69
2021/03/09 01:20:36;;;;;;;17.08;10.48;;;;;;;;;;5012658;28;20467;-70
2021/03/09 01:23:02;;;;;;;17.00;9.55;;;;;;;;;;4995327;28;20081;-69
2021/03/09 01:25:28;;;;;;;18.20;9.57;;;;;;;;;;4994302;28;20100;-69
2021/03/09 01:27:54;;;;;;;16.77;9.90;;;;;;;;;;4983841;28;20054;-70
2021/03/09 01:30:21;;;;;;;15.70;9.05;;;;;;;;;;4975536;28;20086;-69
2021/03/09 01:32:47;;;;;;;17.83;10.10;;;;;;;;;;4975027;28;20050;-69
2021/03/09 01:35:14;;;;;;;17.65;9.90;;;;;;;;;;4992422;28;20058;-70
2021/03/09 01:37:40;;;;;;;14.98;9.88;;;;;;;;;;4975001;28;20062;-69
2021/03/09 01:40:08;;;;;;;19.13;10.52;;;;;;;;;;4989608;28;20101;-69
2021/03/09 01:42:34;;;;;;;15.75;9.55;;;;;;;;;;4994531;28;20108;-70
2021/03/09 01:45:02;;;;;;;16.20;9.88;;;;;;;;;;5012187;28;20050;-69
2021/03/09 01:47:30;;;;;;;15.77;9.85;;;;;;;;;;5011413;28;20054;-69
2021/03/09 01:49:56;;;;;;;19.65;11.32;;;;;;;;;;4994820;28;20049;-69
2021/03/09 01:52:22;;;;;;;18.75;9.65;;;;;;;;;;5010547;28;20108;-70
2021/03/09 01:54:49;;;;;;;16.38;10.25;;;;;;;;;;5011008;28;20050;-70
2021/03/09 01:57:15;;;;;;;14.80;9.05;;;;;;;;;;4993884;28;20057;-70
2021/03/09 01:59:41;;;;;;;16.17;10.40;;;;;;;;;;4994535;28;20046;-70
2021/03/09 02:02:07;;;;;;;13.50;9.02;;;;;;;;;;4978433;28;20559;-70
2021/03/09 02:04:34;;;;;;;13.98;8.55;;;;;;;;;;4994359;28;20491;-70
2021/03/09 02:07:00;;;;;;;15.52;9.57;;;;;;;;;;5010237;28;20104;-69
2021/03/09 02:09:26;;;;;;;16.02;10.30;;;;;;;;;;5011773;28;20504;-70
2021/03/09 02:11:52;;;;;;;19.65;10.02;;;;;;;;;;4994064;28;20050;-70
2021/03/09 02:14:58;;;;;;;17.05;9.82;;;;;;;;;;5012019;28;20406;-69
2021/03/09 02:17:37;;;;;;;14.98;8.65;;;;;;;;;;5003863;28;20057;-70
2021/03/09 02:20:37;;;;;;;18.98;10.75;;;;;;;;;;5011857;28;20189;-70
2021/03/09 02:23:09;;;;;;;18.55;10.45;;;;;;;;;;5011858;28;20472;-70
2021/03/09 02:26:01;;;;;;;19.08;10.68;;;;;;;;;;5010874;28;20054;-69
2021/03/09 02:29:01;;;;;;;17.75;9.75;;;;;;;;;;4996219;28;20054;-70
2021/03/09 02:31:27;;;;;;;19.42;10.32;;;;;;;;;;5015516;28;20421;-70
2021/03/09 02:33:56;;;;;;;19.33;9.45;;;;;;;;;;4998613;28;20057;-70
2021/03/09 02:36:25;;;;;;;16.33;9.93;;;;;;;;;;4984653;28;20465;-69
2021/03/09 02:38:53;;;;;;;15.13;9.20;;;;;;;;;;4978614;28;20603;-69
2021/03/09 02:41:20;;;;;;;20.50;10.98;;;;;;;;;;4978490;28;20074;-69
2021/03/09 02:43:48;;;;;;;17.60;10.40;;;;;;;;;;4978556;28;20050;-70
2021/03/09 02:46:15;;;;;;;20.83;10.13;;;;;;;;;;4989047;28;20459;-69
2021/03/09 02:48:42;;;;;;;16.92;10.85;;;;;;;;;;4997936;28;20402;-70
2021/03/09 02:51:08;;;;;;;18.65;10.70;;;;;;;;;;4997895;28;20050;-69
2021/03/09 02:53:35;;;;;;;18.08;10.25;;;;;;;;;;4997814;28;20096;-70
2021/03/09 02:56:04;;;;;;;19.58;10.68;;;;;;;;;;4997235;28;20057;-69
2021/03/09 02:58:30;;;;;;;16.77;10.68;;;;;;;;;;5006452;28;20084;-69
2021/03/09 03:00:56;;;;;;;21.35;10.60;;;;;;;;;;4978426;28;20116;-70
2021/03/09 03:03:23;;;;;;;17.85;10.52;;;;;;;;;;4978146;28;20057;-69
2021/03/09 03:05:49;;;;;;;21.52;11.20;;;;;;;;;;4994954;28;20116;-69
2021/03/09 03:08:15;;;;;;;23.02;11.30;;;;;;;;;;4978179;28;20089;-69
2021/03/09 03:10:48;;;;;;;25.30;11.25;;;;;;;;;;4977710;28;20089;-69
2021/03/09 03:13:14;;;;;;;20.15;10.73;;;;;;;;;;4994174;28;20097;-68
2021/03/09 03:15:41;;;;;;;22.17;11.35;;;;;;;;;;4993453;28;20082;-68
2021/03/09 03:18:12;;;;;;;20.23;10.60;;;;;;;;;;4983493;28;20053;-68
2021/03/09 03:20:38;;;;;;;19.33;10.88;;;;;;;;;;4997399;28;20393;-68
2021/03/09 03:23:04;;;;;;;23.20;10.60;;;;;;;;;;4997292;28;20464;-69
2021/03/09 03:25:31;;;;;;;19.25;10.88;;;;;;;;;;5012558;28;20116;-69
2021/03/09 03:27:57;;;;;;;19.35;10.40;;;;;;;;;;4996553;28;20501;-69
2021/03/09 03:30:23;;;;;;;20.17;10.02;;;;;;;;;;4996814;28;20081;-69
2021/03/09 03:32:49;;;;;;;19.25;11.00;;;;;;;;;;5013475;28;20077;-69
2021/03/09 03:35:16;;;;;;;16.30;9.80;;;;;;;;;;4996797;28;20045;-69
2021/03/09 03:37:43;;;;;;;18.70;10.90;;;;;;;;;;5014077;28;20481;-69
2021/03/09 03:40:14;;;;;;;20.40;10.35;;;;;;;;;;4996411;28;20056;-69
2021/03/09 03:42:41;;;;;;;21.10;10.73;;;;;;;;;;5013211;28;20053;-69
2021/03/09 03:45:08;;;;;;;19.38;10.07;;;;;;;;;;4996903;28;20069;-69
2021/03/09 03:47:35;;;;;;;20.80;10.82;;;;;;;;;;5012711;28;20096;-68
2021/03/09 03:50:12;;;;;;;19.90;10.27;;;;;;;;;;4998298;28;20128;-68
2021/03/09 03:52:57;;;;;;;17.98;10.38;;;;;;;;;;4996904;28;20076;-69
2021/03/09 03:55:33;;;;;;;18.45;9.93;;;;;;;;;;5012253;28;20058;-69
2021/03/09 03:58:20;;;;;;;21.63;11.32;;;;;;;;;;4979887;28;20097;-68
2021/03/09 04:00:46;;;;;;;17.95;10.32;;;;;;;;;;4978809;28;20050;-69
2021/03/09 04:03:13;;;;;;;19.58;10.88;;;;;;;;;;4977318;28;20082;-68
2021/03/09 04:05:42;;;;;;;19.30;9.88;;;;;;;;;;4976527;28;20050;-68
2021/03/09 04:08:08;;;;;;;21.77;9.80;;;;;;;;;;4991464;28;20111;-68
2021/03/09 04:10:34;;;;;;;16.48;9.68;;;;;;;;;;4996250;28;20073;-69
2021/03/09 04:13:01;;;;;;;21.42;10.57;;;;;;;;;;5013896;28;20052;-69
2021/03/09 04:15:27;;;;;;;19.92;10.15;;;;;;;;;;4979491;28;20402;-68
2021/03/09 04:17:53;;;;;;;17.08;9.73;;;;;;;;;;4996110;28;20057;-68
2021/03/09 04:20:36;;;;;;;19.50;10.87;;;;;;;;;;4998596;28;20058;-68
2021/03/09 04:23:03;;;;;;;20.35;10.82;;;;;;;;;;4996373;28;20054;-69
2021/03/09 04:25:32;;;;;;;18.35;10.43;;;;;;;;;;4995367;28;20045;-68
2021/03/09 04:27:58;;;;;;;16.55;10.27;;;;;;;;;;4996323;28;20073;-69
2021/03/09 04:30:24;;;;;;;21.52;10.27;;;;;;;;;;4995992;28;20497;-69
2021/03/09 04:32:51;;;;;;;18.65;9.73;;;;;;;;;;4996036;28;20053;-68
2021/03/09 04:35:17;;;;;;;16.98;9.32;;;;;;;;;;4995678;28;20046;-68
2021/03/09 04:37:43;;;;;;;19.27;10.18;;;;;;;;;;5027626;23;20048;-70
2021/03/09 04:40:10;;;;;;;21.63;11.05;;;;;;;;;;5052111;28;20105;-69
2021/03/09 04:42:36;;;;;;;23.75;13.20;;;;;;;;;;5052594;28;20099;-68
2021/03/09 04:45:04;;;;;;;23.48;11.80;;;;;;;;;;5068266;28;20470;-68
2021/03/09 04:47:30;;;;;;;23.13;11.95;;;;;;;;;;5048646;28;20053;-69
2021/03/09 04:49:56;;;;;;;16.98;10.30;;;;;;;;;;5031165;28;20474;-68
2021/03/09 04:52:23;;;;;;;20.17;11.43;;;;;;;;;;5047883;28;20123;-68
2021/03/09 04:54:50;;;;;;;20.80;11.27;;;;;;;;;;5031615;28;20049;-69
2021/03/09 04:57:16;;;;;;;18.60;10.77;;;;;;;;;;5031067;28;20061;-69
2021/03/09 04:59:42;;;;;;;25.20;10.65;;;;;;;;;;5033034;28;20107;-69
2021/03/09 05:02:09;;;;;;;16.88;9.93;;;;;;;;;;5032736;28;20056;-68
2021/03/09 05:04:35;;;;;;;17.45;10.85;;;;;;;;;;5047982;28;20084;-68
2021/03/09 05:07:01;;;;;;;18.90;10.40;;;;;;;;;;5031840;28;20088;-71
2021/03/09 05:09:27;;;;;;;22.67;12.38;;;;;;;;;;5032475;28;20100;-68
2021/03/09 05:11:54;;;;;;;18.42;10.82;;;;;;;;;;5017706;28;20049;-68
2021/03/09 05:14:20;;;;;;;23.30;11.27;;;;;;;;;;5030090;28;20471;-68
2021/03/09 05:16:47;;;;;;;21.90;10.93;;;;;;;;;;5014990;28;20058;-68
2021/03/09 05:19:13;;;;;;;18.98;10.45;;;;;;;;;;5012729;28;20054;-68
2021/03/09 05:21:39;;;;;;;22.27;11.75;;;;;;;;;;5012587;28;20074;-68
2021/03/09 05:24:06;;;;;;;23.58;12.30;;;;;;;;;;5012649;28;20077;-68
2021/03/09 05:26:32;;;;;;;20.63;11.07;;;;;;;;;;5011766;28;20058;-69
2021/03/09 05:28:59;;;;;;;20.83;11.38;;;;;;;;;;5012635;28;20464;-68
2021/03/09 05:31:25;;;;;;;23.23;12.02;;;;;;;;;;5012423;28;20085;-68
2021/03/09 05:33:51;;;;;;;18.52;10.65;;;;;;;;;;5012407;28;20050;-68
2021/03/09 05:36:17;;;;;;;20.55;10.43;;;;;;;;;;5011662;28;20049;-68
2021/03/09 05:38:43;;;;;;;24.83;10.98;;;;;;;;;;5012288;28;20085;-68
2021/03/09 05:41:09;;;;;;;22.38;11.20;;;;;;;;;;5012395;28;20049;-68
2021/03/09 05:43:35;;;;;;;22.15;11.88;;;;;;;;;;5011128;28;20131;-68
2021/03/09 05:46:01;;;;;;;21.40;11.77;;;;;;;;;;5011577;28;20127;-68
2021/03/09 05:48:27;;;;;;;19.60;11.95;;;;;;;;;;5010725;28;20111;-68
2021/03/09 05:50:54;;;;;;;19.17;11.70;;;;;;;;;;5010723;28;20054;-68
2021/03/09 05:53:21;;;;;;;24.05;12.27;;;;;;;;;;5012033;28;20045;-68
2021/03/09 05:55:48;;;;;;;23.55;13.45;;;;;;;;;;5023296;28;20111;-69
2021/03/09 05:58:14;;;;;;;21.15;12.45;;;;;;;;;;5030404;28;20100;-68
2021/03/09 06:00:40;;;;;;;25.23;13.45;;;;;;;;;;5030339;28;20538;-68
2021/03/09 06:03:06;;;;;;;23.40;12.45;;;;;;;;;;5030225;28;20053;-68
2021/03/09 06:05:32;;;;;;;29.27;15.48;;;;;;;;;;5030974;28;20522;-68
2021/03/09 06:07:59;;;;;;;31.73;15.75;;;;;;;;;;5025046;28;20050;-68
2021/03/09 06:10:25;;;;;;;29.25;15.05;;;;;;;;;;5011632;28;20104;-68
2021/03/09 06:12:52;;;;;;;32.70;14.50;;;;;;;;;;5011131;28;20508;-69
2021/03/09 06:15:18;;;;;;;23.67;13.32;;;;;;;;;;5008895;28;20092;-70
2021/03/09 06:17:53;;;;;;;22.80;13.05;;;;;;;;;;5009761;28;20054;-69
2021/03/09 06:20:28;;;;;;;20.45;12.40;;;;;;;;;;5009908;28;20060;-68
2021/03/09 06:22:58;;;;;;;23.63;10.73;;;;;;;;;;5009899;28;20104;-69
2021/03/09 06:25:33;;;;;;;25.85;11.95;;;;;;;;;;5009437;28;20131;-69
2021/03/09 06:28:01;;;;;;;21.05;12.23;;;;;;;;;;5009240;28;20100;-69
2021/03/09 06:30:29;;;;;;;19.98;11.95;;;;;;;;;;5009555;28;20104;-68
2021/03/09 06:32:55;;;;;;;20.88;12.07;;;;;;;;;;5009808;28;20112;-68
2021/03/09 06:35:42;;;;;;;21.80;11.50;;;;;;;;;;5009386;28;20443;-69
2021/03/09 06:38:19;;;;;;;21.85;11.70;;;;;;;;;;5009237;28;20049;-69
2021/03/09 06:41:05;;;;;;;25.17;12.48;;;;;;;;;;5009335;28;20042;-69
2021/03/09 06:43:31;;;;;;;21.60;10.73;;;;;;;;;;5021017;28;20140;-69
2021/03/09 06:46:22;;;;;;;20.50;11.85;;;;;;;;;;5026529;28;20085;-68
2021/03/09 06:48:54;;;;;;;21.67;11.32;;;;;;;;;;5027741;28;20054;-68
2021/03/09 06:51:38;;;;;;;19.20;11.38;;;;;;;;;;5028760;28;20133;-68
2021/03/09 06:54:07;;;;;;;19.13;11.18;;;;;;;;;;5029133;28;20095;-69
2021/03/09 06:56:35;;;;;;;15.68;9.65;;;;;;;;;;5028643;28;20065;-68
2021/03/09 06:59:27;;;;;;;19.58;11.18;;;;;;;;;;5029335;28;20084;-69
2021/03/09 07:02:07;;;;;;;23.80;10.25;;;;;;;;;;5029467;28;20211;-69
2021/03/09 07:04:33;;;;;;;21.15;10.90;;;;;;;;;;5029179;28;20115;-68
2021/03/09 07:07:00;;;;;;;23.92;10.82;;;;;;;;;;5028578;28;20049;-68
2021/03/09 07:09:26;;;;;;;20.48;11.75;;;;;;;;;;5028342;28;20057;-68
2021/03/09 07:11:53;;;;;;;19.17;11.07;;;;;;;;;;5009420;28;20050;-69
2021/03/09 07:14:19;;;;;;;20.35;11.23;;;;;;;;;;5011339;28;20065;-69
2021/03/09 07:16:50;;;;;;;17.85;10.98;;;;;;;;;;5012980;28;20490;-68
2021/03/09 07:19:34;;;;;;;18.60;11.13;;;;;;;;;;5025599;28;20045;-70
2021/03/09 07:22:01;;;;;;;21.25;11.20;;;;;;;;;;5033193;28;20041;-69
2021/03/09 07:24:27;;;;;;;22.33;11.35;;;;;;;;;;5032386;28;20053;-69
2021/03/09 07:26:55;;;;;;;18.05;11.02;;;;;;;;;;5015050;28;20488;-69
2021/03/09 07:29:22;;;;;;;17.90;10.73;;;;;;;;;;5025579;28;20493;-69
2021/03/09 07:31:49;;;;;;;20.50;11.40;;;;;;;;;;5024350;28;20431;-69
2021/03/09 07:34:16;;;;;;;21.63;12.07;;;;;;;;;;5036281;28;20054;-69
2021/03/09 07:36:42;;;;;;;26.10;11.30;;;;;;;;;;5024632;28;20162;-69
2021/03/09 07:39:08;;;;;;;16.85;10.45;;;;;;;;;;5030473;28;20053;-69
2021/03/09 07:41:35;;;;;;;17.85;10.73;;;;;;;;;;5027748;28;20129;-69
2021/03/09 07:44:05;;;;;;;22.95;11.45;;;;;;;;;;5013109;28;20497;-68
2021/03/09 07:46:31;;;;;;;21.00;11.68;;;;;;;;;;5012356;28;20124;-69
2021/03/09 07:48:56;;;;;;;22.15;12.32;;;;;;;;;;5011694;28;20548;-68
2021/03/09 07:51:22;;;;;;;23.35;11.05;;;;;;;;;;5011715;28;20176;-68
2021/03/09 07:54:09;;;;;;;22.40;12.57;;;;;;;;;;5011492;28;20044;-68
2021/03/09 07:56:35;;;;;;;22.80;13.82;;;;;;;;;;5012439;28;20092;-68
2021/03/09 07:59:07;;;;;;;23.20;13.07;;;;;;;;;;5011389;28;20033;-68
2021/03/09 08:01:48;;;;;;;24.17;11.30;;;;;;;;;;4972523;28;20144;-67
2021/03/09 08:04:13;;;;;;;25.65;12.13;;;;;;;;;;5030094;28;20120;-68
2021/03/09 08:06:43;;;;;;;29.80;11.73;;;;;;;;;;5044196;28;20128;-68
2021/03/09 08:09:34;;;;;;;21.05;12.18;;;;;;;;;;5023380;28;20396;-69
2021/03/09 08:12:00;;;;;;;21.65;11.98;;;;;;;;;;5021285;28;20041;-68
2021/03/09 08:14:26;;;;;;;21.92;12.63;;;;;;;;;;5003077;28;20066;-69
2021/03/09 08:16:52;;;;;;;19.48;11.70;;;;;;;;;;5014784;28;20139;-68
2021/03/09 08:19:25;;;;;;;25.60;12.48;;;;;;;;;;5021605;28;20160;-69
2021/03/09 08:22:09;;;;;;;22.25;11.95;;;;;;;;;;5027410;28;20049;-69
2021/03/09 08:24:47;;;;;;;23.33;12.60;;;;;;;;;;5024808;28;20103;-67
2021/03/09 08:27:30;;;;;;;21.55;13.02;;;;;;;;;;5029335;28;20053;-70
2021/03/09 08:29:57;;;;;;;22.63;12.23;;;;;;;;;;5028428;28;20060;-68
2021/03/09 08:32:22;;;;;;;22.15;14.07;;;;;;;;;;5044151;28;20069;-71
2021/03/09 08:35:10;;;;;;;20.67;12.70;;;;;;;;;;5031095;28;20547;-69
2021/03/09 08:37:37;;;;;;;24.23;13.35;;;;;;;;;;5043459;28;20103;-68
2021/03/09 08:40:05;;;;;;;22.88;12.05;;;;;;;;;;5032408;28;20054;-68
2021/03/09 08:43:02;;;;;;;22.90;12.90;;;;;;;;;;5014428;28;20107;-69
2021/03/09 08:45:54;;;;;;;21.48;12.82;;;;;;;;;;5029442;28;20045;-69
2021/03/09 08:48:49;;;;;;;23.48;13.55;;;;;;;;;;5045497;28;20221;-70
2021/03/09 08:51:41;;;;;;;21.55;12.45;;;;;;;;;;5029156;28;20041;-69
2021/03/09 08:54:18;;;;;;;23.75;13.57;;;;;;;;;;5029792;28;20050;-74
2021/03/09 08:56:44;;;;;;;19.65;12.35;;;;;;;;;;5046443;28;20053;-70
2021/03/09 08:59:10;;;;;;;26.50;13.50;;;;;;;;;;5030566;28;20049;-70
2021/03/09 09:01:36;;;;;;;25.35;13.52;;;;;;;;;;5047026;28;20135;-69
2021/03/09 09:04:13;;;;;;;25.48;13.18;;;;;;;;;;5030392;28;20045;-69
2021/03/09 09:06:39;;;;;;;21.35;12.07;;;;;;;;;;5028755;28;20053;-68
2021/03/09 09:09:06;;;;;;;19.17;12.48;;;;;;;;;;5028241;28;20049;-68
2021/03/09 09:11:32;;;;;;;24.55;13.95;;;;;;;;;;5028502;28;20053;-67
2021/03/09 09:13:58;;;;;;;17.40;11.95;;;;;;;;;;5028397;28;20554;-72
2021/03/09 09:16:24;;;;;;;22.63;12.43;;;;;;;;;;5030256;28;20542;-69
2021/03/09 09:18:50;;;;;;;21.40;12.88;;;;;;;;;;5045951;28;20049;-69
2021/03/09 09:21:16;;;;;;;19.70;13.18;;;;;;;;;;5022639;28;20408;-70
2021/03/09 09:23:55;;;;;;;23.20;13.60;;;;;;;;;;5027425;28;20060;-69
2021/03/09 09:26:21;;;;;;;23.05;13.65;;;;;;;;;;5045566;28;20084;-71
2021/03/09 09:28:47;;;;;;;21.13;13.90;;;;;;;;;;5031038;28;20111;-71
2021/03/09 09:31:15;;;;;;;22.00;13.65;;;;;;;;;;5030362;28;20037;-71
2021/03/09 09:33:50;;;;;;;22.73;13.93;;;;;;;;;;5030956;28;20053;-69
2021/03/09 09:36:16;;;;;;;23.40;14.18;;;;;;;;;;5028116;28;20049;-72
2021/03/09 09:38:42;;;;;;;28.90;14.55;;;;;;;;;;5029380;28;20050;-71
2021/03/09 09:41:08;;;;;;;22.85;14.43;;;;;;;;;;5030862;28;20532;-71
2021/03/09 09:43:36;;;;;;;25.92;14.07;;;;;;;;;;5029772;28;20936;-72
2021/03/09 09:46:15;;;;;;;26.65;14.27;;;;;;;;;;5038356;28;20049;-72
2021/03/09 09:48:42;;;;;;;21.70;13.48;;;;;;;;;;5042938;28;20057;-69
2021/03/09 09:51:15;;;;;;;29.27;14.52;;;;;;;;;;5010475;28;20041;-74
2021/03/09 09:53:43;;;;;;;21.55;12.68;;;;;;;;;;5029033;28;20068;-69
2021/03/09 09:56:10;;;;;;;27.00;13.13;;;;;;;;;;5028713;28;20048;-70
2021/03/09 09:58:44;;;;;;;23.38;13.63;;;;;;;;;;5030026;28;20084;-70
2021/03/09 10:01:11;;;;;;;24.42;13.90;;;;;;;;;;5027113;28;20107;-69
2021/03/09 10:04:00;;;;;;;21.20;13.00;;;;;;;;;;5028569;28;20060;-70
2021/03/09 10:06:30;;;;;;;20.30;13.32;;;;;;;;;;5024060;28;20111;-69
2021/03/09 10:09:13;;;;;;;20.25;13.15;;;;;;;;;;5027948;28;20045;-71
2021/03/09 10:11:45;;;;;;;20.38;13.05;;;;;;;;;;5028208;28;20108;-72
2021/03/09 10:14:11;;;;;;;23.55;14.15;;;;;;;;;;5029196;28;20045;-75
2021/03/09 10:16:39;;;;;;;22.55;13.65;;;;;;;;;;5027977;28;20050;-70
2021/03/09 10:19:16;;;;;;;19.23;13.20;;;;;;;;;;5050764;28;20049;-71
2021/03/09 10:21:43;;;;;;;22.13;14.32;;;;;;;;;;5027755;28;20111;-70
2021/03/09 10:24:18;;;;;;;20.38;13.70;;;;;;;;;;5029827;28;20053;-68
2021/03/09 10:26:47;;;;;;;19.10;13.27;;;;;;;;;;5039117;28;20092;-69
2021/03/09 10:29:20;;;;;;;20.98;14.05;;;;;;;;;;5028184;28;20093;-68
2021/03/09 10:31:47;;;;;;;;;;;;;;;;;;5029619;28;20049;-71
2021/03/09 10:34:15;;;;;;;20.48;13.13;;;;;;;;;;5021549;28;19924;-72
2021/03/09 10:36:48;;;;;;;25.05;14.15;;;;;;;;;;5043648;28;20478;-71
2021/03/09 10:39:14;;;;;;;19.33;13.50;;;;;;;;;;5045462;28;20098;-73
2021/03/09 10:41:40;;;;;;;19.65;14.15;;;;;;;;;;5029414;28;20046;-73
2021/03/09 10:44:06;;;;;;;19.77;13.38;;;;;;;;;;5029555;28;20057;-74
2021/03/09 10:46:35;;;;;;;23.20;13.65;;;;;;;;;;5028681;28;20107;-73
2021/03/09 10:49:02;;;;;;;19.25;12.43;;;;;;;;;;5027360;28;20132;-73
2021/03/09 10:51:29;;;;;;;19.95;13.15;;;;;;;;;;5048960;28;20095;-71
2021/03/09 10:53:55;;;;;;;23.08;13.52;;;;;;;;;;5033447;28;20096;-72
2021/03/09 10:56:21;;;;;;;18.55;12.23;;;;;;;;;;5032676;28;20854;-72
2021/03/09 10:58:47;;;;;;;18.20;12.25;;;;;;;;;;5040370;28;20049;-72
2021/03/09 11:01:13;;;;;;;16.90;11.70;;;;;;;;;;5031889;28;20123;-72
2021/03/09 11:03:39;;;;;;;17.98;12.15;;;;;;;;;;5048639;28;20053;-73
2021/03/09 11:06:05;;;;;;;15.98;11.55;;;;;;;;;;5032479;28;20077;-72
2021/03/09 11:08:31;;;;;;;15.77;11.18;;;;;;;;;;5032673;28;20053;-74
2021/03/09 11:10:58;;;;;;;17.42;11.88;;;;;;;;;;5027786;28;20053;-74
2021/03/09 11:13:24;;;;;;;16.27;11.32;;;;;;;;;;5031286;28;20576;-73
2021/03/09 11:15:50;;;;;;;16.98;10.50;;;;;;;;;;5032582;28;20092;-74
2021/03/09 11:18:16;;;;;;;20.55;10.95;;;;;;;;;;5030306;28;20053;-72
2021/03/09 11:20:43;;;;;;;17.23;10.77;;;;;;;;;;5031952;28;20049;-73
2021/03/09 11:23:09;;;;;;;14.80;9.93;;;;;;;;;;5029287;28;20488;-72
2021/03/09 11:25:36;;;;;;;16.70;10.75;;;;;;;;;;5036656;28;20073;-75
2021/03/09 11:28:06;;;;;;;17.45;10.80;;;;;;;;;;5029210;28;20083;-73
2021/03/09 11:30:32;;;;;;;16.08;9.90;;;;;;;;;;5032606;28;20512;-73
2021/03/09 11:32:58;;;;;;;13.35;9.55;;;;;;;;;;5047966;28;20050;-73
2021/03/09 11:35:25;;;;;;;13.05;9.18;;;;;;;;;;5027012;28;20049;-72
2021/03/09 11:37:51;;;;;;;13.77;8.88;;;;;;;;;;5029547;28;20187;-72
2021/03/09 11:40:17;;;;;;;15.68;9.32;;;;;;;;;;5031843;28;20085;-73
2021/03/09 11:42:43;;;;;;;11.98;8.95;;;;;;;;;;5029869;28;20045;-74
2021/03/09 11:45:09;;;;;;;13.70;9.15;;;;;;;;;;5028580;28;20045;-74
2021/03/09 11:47:35;;;;;;;12.23;8.85;;;;;;;;;;5029433;28;20524;-72
2021/03/09 11:50:03;;;;;;;12.20;8.43;;;;;;;;;;5031724;28;20127;-71
2021/03/09 11:52:30;;;;;;;11.85;8.35;;;;;;;;;;5028191;28;20041;-72
2021/03/09 11:54:56;;;;;;;12.30;8.73;;;;;;;;;;5030044;28;20053;-72
2021/03/09 11:57:22;;;;;;;11.80;8.95;;;;;;;;;;5028941;28;20550;-72
2021/03/09 11:59:48;;;;;;;12.00;8.32;;;;;;;;;;5029197;28;20542;-72
2021/03/09 12:02:14;;;;;;;11.10;8.50;;;;;;;;;;5030601;28;20041;-72
2021/03/09 12:04:41;;;;;;;13.02;7.55;;;;;;;;;;5028990;28;20065;-72
2021/03/09 12:07:07;;;;;;;9.73;6.45;;;;;;;;;;5029039;28;20093;-71
2021/03/09 12:09:33;;;;;;;9.52;7.38;;;;;;;;;;5028152;28;20569;-71
2021/03/09 12:11:59;;;;;;;10.85;7.25;;;;;;;;;;5029839;28;20050;-70
2021/03/09 12:14:25;;;;;;;9.93;7.18;;;;;;;;;;5031419;28;20053;-69
2021/03/09 12:16:51;;;;;;;9.98;7.70;;;;;;;;;;5031232;28;20064;-69
2021/03/09 12:19:18;;;;;;;10.50;6.43;;;;;;;;;;5031329;28;20183;-70
2021/03/09 12:21:44;;;;;;;8.57;6.72;;;;;;;;;;5032026;28;20567;-70
2021/03/09 12:24:10;;;;;;;8.85;6.70;;;;;;;;;;5032578;28;20057;-71
2021/03/09 12:26:36;;;;;;;8.60;6.22;;;;;;;;;;5030148;28;20125;-69
2021/03/09 12:29:02;;;;;;;15.93;7.95;;;;;;;;;;5022939;28;20088;-70
2021/03/09 12:31:28;;;;;;;9.45;7.07;;;;;;;;;;5034433;28;20082;-68
2021/03/09 12:33:54;;;;;;;7.22;5.82;;;;;;;;;;5031394;28;20561;-69
2021/03/09 12:36:20;;;;;;;8.95;6.60;;;;;;;;;;5030152;28;20046;-70
2021/03/09 12:38:47;;;;;;;9.98;7.20;;;;;;;;;;5030592;28;20179;-70
2021/03/09 12:41:13;;;;;;;11.30;7.45;;;;;;;;;;5030657;28;20073;-69
2021/03/09 12:43:39;;;;;;;11.93;7.55;;;;;;;;;;5027545;28;20053;-69
2021/03/09 12:46:05;;;;;;;9.43;6.55;;;;;;;;;;5030255;28;20087;-70
2021/03/09 12:48:31;;;;;;;9.85;6.38;;;;;;;;;;5029691;28;20496;-71
2021/03/09 12:50:57;;;;;;;9.50;6.50;;;;;;;;;;5030730;28;20052;-71
2021/03/09 12:53:23;;;;;;;10.23;7.50;;;;;;;;;;5029371;28;20447;-72
2021/03/09 12:55:50;;;;;;;9.32;6.10;;;;;;;;;;5029938;28;20519;-70
2021/03/09 12:58:16;;;;;;;7.85;6.60;;;;;;;;;;5030578;28;20057;-68
2021/03/09 13:00:42;;;;;;;8.52;6.68;;;;;;;;;;5030392;28;20136;-70
2021/03/09 13:03:08;;;;;;;9.30;6.38;;;;;;;;;;5028738;28;20041;-70
2021/03/09 13:05:34;;;;;;;7.50;5.65;;;;;;;;;;5029440;28;20085;-71
2021/03/09 13:08:01;;;;;;;10.02;6.53;;;;;;;;;;5030948;28;20045;-71
2021/03/09 13:10:27;;;;;;;10.18;6.63;;;;;;;;;;5030220;28;20115;-70
2021/03/09 13:12:54;;;;;;;8.80;6.22;;;;;;;;;;5029917;28;20049;-69
2021/03/09 13:15:20;;;;;;;8.20;6.90;;;;;;;;;;5030359;28;20187;-71
2021/03/09 13:17:46;;;;;;;8.02;6.50;;;;;;;;;;5030409;28;20057;-70
2021/03/09 13:20:14;;;;;;;8.68;6.65;;;;;;;;;;5030009;28;20058;-70
2021/03/09 13:22:40;;;;;;;8.25;6.57;;;;;;;;;;5027351;28;20046;-70
2021/03/09 13:25:10;;;;;;;7.68;5.95;;;;;;;;;;5030113;28;20053;-71
2021/03/09 13:27:36;;;;;;;9.02;6.15;;;;;;;;;;5025050;28;20053;-70
2021/03/09 13:30:14;;;;;;;8.15;6.35;;;;;;;;;;5030007;28;20470;-70
2021/03/09 13:32:41;;;;;;;8.60;6.15;;;;;;;;;;5029498;28;20045;-70
2021/03/09 13:35:08;;;;;;;8.68;6.68;;;;;;;;;;5029840;28;20435;-70
2021/03/09 13:37:34;;;;;;;10.88;6.95;;;;;;;;;;5028961;28;20049;-70
2021/03/09 13:40:01;;;;;;;8.90;6.60;;;;;;;;;;5028038;28;20075;-70
2021/03/09 13:42:27;;;;;;;7.65;6.30;;;;;;;;;;5029885;28;20079;-70
2021/03/09 13:44:53;;;;;;;7.30;6.32;;;;;;;;;;5030121;28;20127;-70
2021/03/09 13:47:19;;;;;;;12.45;7.72;;;;;;;;;;5028836;28;20076;-70
2021/03/09 13:49:45;;;;;;;7.03;5.95;;;;;;;;;;5029834;28;20051;-70
2021/03/09 13:52:12;;;;;;;8.85;6.65;;;;;;;;;;5027337;28;20069;-70
2021/03/09 13:54:44;;;;;;;9.07;6.30;;;;;;;;;;5026720;28;20057;-70
2021/03/09 13:57:15;;;;;;;;;;;;;;;;;;5030207;28;20048;-70
2021/03/09 13:59:41;;;;;;;7.65;6.03;;;;;;;;;;5029555;28;20302;-70
2021/03/09 14:02:09;;;;;;;7.60;6.03;;;;;;;;;;5028306;28;20493;-70
2021/03/09 14:04:35;;;;;;;7.95;5.90;;;;;;;;;;5029442;28;20059;-70
2021/03/09 14:07:01;;;;;;;7.72;5.90;;;;;;;;;;5029320;28;20132;-70
2021/03/09 14:09:28;;;;;;;7.68;6.47;;;;;;;;;;5029508;28;20073;-70
2021/03/09 14:11:54;;;;;;;7.82;6.50;;;;;;;;;;5029725;28;20080;-70
2021/03/09 14:14:21;;;;;;;7.78;6.50;;;;;;;;;;5029342;28;20104;-71
2021/03/09 14:16:47;;;;;;;8.85;6.97;;;;;;;;;;5028828;28;20106;-70
2021/03/09 14:19:13;;;;;;;9.35;6.45;;;;;;;;;;5029419;28;20458;-70
2021/03/09 14:21:40;;;;;;;8.32;6.40;;;;;;;;;;5029596;28;20119;-71
2021/03/09 14:24:06;;;;;;;9.43;6.78;;;;;;;;;;5033350;28;20552;-70
2021/03/09 14:26:32;;;;;;;9.40;6.07;;;;;;;;;;5034856;28;20049;-69
2021/03/09 14:28:59;;;;;;;7.55;6.53;;;;;;;;;;5051191;28;20099;-71
2021/03/09 14:31:26;;;;;;;9.45;6.15;;;;;;;;;;5032049;28;20046;-71
2021/03/09 14:33:53;;;;;;;9.98;7.00;;;;;;;;;;5036165;28;20162;-71